createdAt,value
2023-01-09T00:02:16.201Z,2.05
2023-01-09T00:05:01.063Z,2.10
2023-01-09T00:07:46.644Z,2.20
2023-01-09T00:10:31.988Z,1.65
2023-01-09T00:13:18.226Z,1.52
2023-01-09T00:16:05.373Z,1.35
2023-01-09T00:18:50.942Z,1.52
2023-01-09T00:21:36.996Z,2.00
2023-01-09T00:24:23.336Z,2.10
2023-01-09T00:27:08.632Z,1.80
2023-01-09T00:29:53.817Z,1.20
2023-01-09T00:32:38.784Z,1.35
2023-01-09T00:35:26.674Z,0.77
2023-01-09T00:38:11.696Z,1.20
2023-01-09T00:40:57.123Z,0.88
2023-01-09T00:43:51.274Z,0.73
2023-01-09T00:46:39.604Z,0.95
2023-01-09T00:49:25.470Z,0.65
2023-01-09T00:52:13.536Z,0.50
2023-01-09T00:54:59.592Z,0.60
2023-01-09T00:57:45.202Z,0.32
2023-01-09T01:00:30.369Z,0.60
2023-01-09T01:03:15.380Z,0.75
2023-01-09T01:06:19.279Z,0.30
2023-01-09T01:09:04.400Z,0.32
2023-01-09T01:11:49.442Z,0.60
2023-01-09T01:14:36.932Z,0.55
2023-01-09T01:17:21.949Z,0.70
2023-01-09T01:20:11.041Z,0.50
2023-01-09T01:22:56.215Z,0.32
2023-01-09T01:25:42.163Z,0.50
2023-01-09T01:28:27.105Z,0.80
2023-01-09T01:31:17.850Z,0.55
2023-01-09T01:34:03.400Z,0.60
2023-01-09T01:36:48.546Z,1.42
2023-01-09T01:39:33.700Z,0.75
2023-01-09T01:42:19.072Z,0.65
2023-01-09T01:45:20.412Z,0.60
2023-01-09T01:48:12.667Z,0.63
2023-01-09T01:51:05.838Z,0.32
2023-01-09T01:53:59.787Z,0.85
2023-01-09T01:56:48.994Z,0.60
2023-01-09T01:59:40.821Z,0.50
2023-01-09T02:02:29.349Z,0.70
2023-01-09T02:05:14.668Z,0.68
2023-01-09T02:07:59.959Z,1.00
2023-01-09T02:10:45.886Z,0.40
2023-01-09T02:13:34.500Z,0.80
2023-01-09T02:16:29.411Z,0.50
2023-01-09T02:19:30.056Z,0.90
2023-01-09T02:22:43.561Z,0.90
2023-01-09T02:26:19.569Z,0.65
2023-01-09T02:29:43.914Z,0.60
2023-01-09T02:32:49.408Z,0.85
2023-01-09T02:35:43.841Z,0.60
2023-01-09T02:38:58.109Z,0.73
2023-01-09T02:42:04.115Z,0.98
2023-01-09T02:44:50.549Z,0.95
2023-01-09T02:47:41.363Z,1.00
2023-01-09T02:50:41.823Z,0.98
2023-01-09T02:53:39.254Z,1.10
2023-01-09T02:56:51.797Z,0.93
2023-01-09T02:59:40.086Z,0.77
2023-01-09T03:02:40.871Z,1.33
2023-01-09T03:05:33.858Z,1.00
2023-01-09T03:08:27.553Z,0.80
2023-01-09T03:11:12.901Z,1.00
2023-01-09T03:14:05.357Z,0.80
2023-01-09T03:16:56.717Z,1.00
2023-01-09T03:19:45.008Z,0.88
2023-01-09T03:22:30.178Z,1.20
2023-01-09T03:25:18.223Z,1.10
2023-01-09T03:28:09.346Z,0.90
2023-01-09T03:30:54.460Z,1.00
2023-01-09T03:33:39.987Z,0.82
2023-01-09T03:36:25.367Z,1.23
2023-01-09T03:39:10.874Z,1.00
2023-01-09T03:41:56.129Z,0.95
2023-01-09T03:44:41.321Z,1.10
2023-01-09T03:47:26.259Z,1.48
2023-01-09T03:50:11.577Z,1.30
2023-01-09T03:52:57.075Z,1.33
2023-01-09T03:55:52.287Z,1.30
2023-01-09T03:58:37.248Z,1.52
2023-01-09T04:01:22.252Z,1.25
2023-01-09T04:04:07.373Z,1.35
2023-01-09T04:06:52.647Z,1.77
2023-01-09T04:09:38.038Z,1.45
2023-01-09T04:12:23.092Z,1.00
2023-01-09T04:15:08.730Z,1.30
2023-01-09T04:17:53.840Z,1.58
2023-01-09T04:20:39.019Z,1.20
2023-01-09T04:23:24.243Z,2.35
2023-01-09T04:26:09.080Z,1.42
2023-01-09T04:28:54.388Z,1.58
2023-01-09T04:31:39.326Z,1.80
2023-01-09T04:34:25.785Z,1.58
2023-01-09T04:37:11.186Z,1.50
2023-01-09T04:39:56.297Z,1.75
2023-01-09T04:42:41.812Z,1.52
2023-01-09T04:45:26.959Z,1.58
2023-01-09T04:48:12.087Z,1.88
2023-01-09T04:50:56.974Z,1.98
2023-01-09T04:53:42.006Z,11.13
2023-01-09T04:56:26.989Z,2.63
2023-01-09T04:59:12.219Z,2.00
2023-01-09T05:01:58.391Z,1.90
2023-01-09T05:04:43.620Z,1.20
2023-01-09T05:07:28.608Z,1.95
2023-01-09T05:10:13.662Z,1.70
2023-01-09T05:12:58.878Z,1.73
2023-01-09T05:15:43.853Z,1.67
2023-01-09T05:18:28.794Z,1.83
2023-01-09T05:21:14.753Z,1.33
2023-01-09T05:23:59.886Z,1.67
2023-01-09T05:26:45.278Z,1.52
2023-01-09T05:29:30.112Z,1.98
2023-01-09T05:32:15.128Z,1.50
2023-01-09T05:35:00.473Z,1.75
2023-01-09T05:37:46.551Z,1.70
2023-01-09T05:40:38.573Z,1.20
2023-01-09T05:43:25.358Z,1.23
2023-01-09T05:46:10.747Z,1.55
2023-01-09T05:48:55.776Z,1.65
2023-01-09T05:51:40.886Z,1.58
2023-01-09T05:54:26.128Z,2.33
2023-01-09T05:57:11.356Z,1.73
2023-01-09T05:59:56.253Z,1.90
2023-01-09T06:02:41.442Z,1.70
2023-01-09T06:05:26.575Z,1.98
2023-01-09T06:08:11.648Z,1.80
2023-01-09T06:10:56.819Z,1.88
2023-01-09T06:13:41.923Z,1.67
2023-01-09T06:16:26.993Z,1.70
2023-01-09T06:19:11.961Z,1.40
2023-01-09T06:21:56.929Z,1.65
2023-01-09T06:24:41.757Z,2.05
2023-01-09T06:27:26.783Z,2.08
2023-01-09T06:30:12.483Z,2.08
2023-01-09T06:32:57.480Z,1.77
2023-01-09T06:35:42.684Z,3.58
2023-01-09T06:38:27.648Z,3.20
2023-01-09T06:41:13.193Z,6.07
2023-01-09T06:43:58.434Z,2.63
2023-01-09T06:46:43.539Z,11.82
2023-01-09T06:49:28.633Z,3.05
2023-01-09T06:52:13.955Z,1.63
2023-01-09T06:54:59.166Z,1.58
2023-01-09T06:57:44.472Z,1.45
2023-01-09T07:00:31.337Z,1.80
2023-01-09T07:03:22.010Z,1.52
2023-01-09T07:06:07.559Z,1.95
2023-01-09T07:08:52.940Z,1.60
2023-01-09T07:11:38.346Z,1.65
2023-01-09T07:14:23.628Z,1.73
2023-01-09T07:17:12.096Z,1.40
2023-01-09T07:19:57.119Z,1.40
2023-01-09T07:22:42.339Z,1.75
2023-01-09T07:25:27.364Z,2.03
2023-01-09T07:28:12.388Z,1.52
2023-01-09T07:31:02.506Z,1.88
2023-01-09T07:33:47.836Z,2.00
2023-01-09T07:36:32.844Z,1.88
2023-01-09T07:39:18.239Z,2.17
2023-01-09T07:42:03.544Z,1.60
2023-01-09T07:44:48.808Z,1.42
2023-01-09T07:47:33.890Z,1.80
2023-01-09T07:50:19.541Z,1.83
2023-01-09T07:53:04.920Z,1.52
2023-01-09T07:55:49.874Z,2.05
2023-01-09T07:58:35.143Z,1.55
2023-01-09T08:01:20.490Z,1.77
2023-01-09T08:04:05.740Z,1.55
2023-01-09T08:06:50.923Z,1.52
2023-01-09T08:09:35.836Z,1.55
2023-01-09T08:12:20.882Z,2.20
2023-01-09T08:15:07.099Z,1.80
2023-01-09T08:17:52.102Z,1.60
2023-01-09T08:20:37.108Z,2.20
2023-01-09T08:23:21.989Z,1.98
2023-01-09T08:26:07.109Z,1.52
2023-01-09T08:28:52.443Z,2.15
2023-01-09T08:31:37.825Z,1.77
2023-01-09T08:34:23.088Z,2.17
2023-01-09T08:37:07.999Z,2.13
2023-01-09T08:39:53.459Z,2.22
2023-01-09T08:42:57.069Z,1.95
2023-01-09T08:46:00.911Z,2.08
2023-01-09T08:48:47.917Z,1.73
2023-01-09T08:51:33.036Z,2.03
2023-01-09T08:54:18.276Z,1.75
2023-01-09T08:57:03.333Z,1.58
2023-01-09T08:59:48.540Z,2.05
2023-01-09T09:02:33.874Z,2.45
2023-01-09T09:05:19.100Z,2.30
2023-01-09T09:08:04.671Z,1.98
2023-01-09T09:10:49.528Z,2.20
2023-01-09T09:13:34.572Z,1.70
2023-01-09T09:16:19.680Z,1.42
2023-01-09T09:19:05.028Z,2.30
2023-01-09T09:21:50.316Z,1.67
2023-01-09T09:24:35.625Z,1.88
2023-01-09T09:27:20.699Z,1.83
2023-01-09T09:30:06.854Z,1.55
2023-01-09T09:32:51.798Z,2.55
2023-01-09T09:35:37.256Z,2.65
2023-01-09T09:38:22.494Z,1.67
2023-01-09T09:41:51.166Z,1.73
2023-01-09T09:44:54.729Z,1.95
2023-01-09T09:47:59.104Z,1.52
2023-01-09T09:51:19.900Z,1.70
2023-01-09T09:54:17.045Z,2.22
2023-01-09T09:57:04.445Z,1.60
2023-01-09T09:59:51.551Z,1.77
2023-01-09T10:02:47.374Z,2.08
2023-01-09T10:05:40.628Z,2.10
2023-01-09T10:09:03.667Z,1.50
2023-01-09T10:12:31.363Z,1.48
2023-01-09T10:15:38.398Z,1.50
2023-01-09T10:18:48.707Z,1.73
2023-01-09T10:24:41.914Z,2.03
2023-01-09T10:27:58.561Z,1.75
2023-01-09T10:31:13.363Z,2.20
2023-01-09T10:34:26.207Z,2.00
2023-01-09T10:37:20.144Z,2.40
2023-01-09T10:40:13.697Z,2.00
2023-01-09T10:43:09.467Z,1.88
2023-01-09T10:46:00.030Z,4.40
2023-01-09T10:48:52.438Z,3.08
2023-01-09T10:52:00.849Z,1.30
2023-01-09T10:55:04.070Z,4.43
2023-01-09T10:57:59.556Z,1.58
2023-01-09T11:00:46.603Z,1.60
2023-01-09T11:03:31.704Z,1.52
2023-01-09T11:06:23.519Z,1.30
2023-01-09T11:09:08.532Z,1.30
2023-01-09T11:11:53.504Z,1.33
2023-01-09T11:14:38.777Z,2.45
2023-01-09T11:17:27.549Z,1.73
2023-01-09T11:20:15.770Z,1.80
2023-01-09T11:23:00.889Z,1.52
2023-01-09T11:25:53.524Z,1.45
2023-01-09T11:28:38.494Z,1.50
2023-01-09T11:31:25.002Z,1.33
2023-01-09T11:34:17.870Z,1.63
2023-01-09T11:37:04.558Z,2.60
2023-01-09T11:39:49.863Z,1.70
2023-01-09T11:42:53.386Z,2.13
2023-01-09T11:45:53.215Z,1.10
2023-01-09T11:48:57.010Z,1.23
2023-01-09T11:51:43.310Z,1.35
2023-01-09T11:54:37.831Z,1.35
2023-01-09T11:57:24.626Z,1.00
2023-01-09T12:00:28.328Z,1.90
2023-01-09T12:03:32.175Z,1.38
2023-01-09T12:06:17.097Z,1.10
2023-01-09T12:09:05.047Z,1.13
2023-01-09T12:11:59.932Z,1.17
2023-01-09T12:14:57.395Z,1.13
2023-01-09T12:17:51.571Z,1.00
2023-01-09T12:21:05.343Z,1.27
2023-01-09T12:24:25.568Z,1.15
2023-01-09T12:27:41.726Z,0.82
2023-01-09T12:30:48.619Z,0.85
2023-01-09T12:33:49.283Z,1.30
2023-01-09T12:36:50.983Z,0.90
2023-01-09T12:39:52.228Z,1.30
2023-01-09T12:43:04.979Z,1.00
2023-01-09T12:46:02.244Z,0.63
2023-01-09T12:48:59.872Z,0.98
2023-01-09T12:51:57.300Z,0.90
2023-01-09T12:55:13.432Z,0.80
2023-01-09T12:58:04.090Z,1.05
2023-01-09T13:00:54.231Z,1.08
2023-01-09T13:03:48.013Z,1.25
2023-01-09T13:06:35.532Z,1.10
2023-01-09T13:09:37.792Z,1.00
2023-01-09T13:12:25.199Z,0.93
2023-01-09T13:15:32.083Z,0.95
2023-01-09T13:18:27.337Z,1.10
2023-01-09T13:21:13.586Z,1.05
2023-01-09T13:24:13.551Z,1.10
2023-01-09T13:27:06.922Z,0.95
2023-01-09T13:30:00.753Z,1.10
2023-01-09T13:33:07.857Z,1.00
2023-01-09T13:35:55.999Z,1.20
2023-01-09T13:38:40.879Z,1.13
2023-01-09T13:41:46.292Z,4.32
2023-01-09T13:44:33.661Z,2.42
2023-01-09T13:47:28.081Z,1.65
2023-01-09T13:50:27.339Z,2.05
2023-01-09T13:53:18.707Z,2.03
2023-01-09T13:56:06.656Z,2.03
2023-01-09T13:58:54.599Z,1.60
2023-01-09T14:01:42.320Z,1.80
2023-01-09T14:04:40.671Z,1.50
2023-01-09T14:07:49.122Z,1.25
2023-01-09T14:10:45.871Z,1.27
2023-01-09T14:13:38.041Z,1.55
2023-01-09T14:16:27.009Z,1.75
2023-01-09T14:19:15.497Z,2.38
2023-01-09T14:22:01.300Z,2.38
2023-01-09T14:24:49.379Z,1.90
2023-01-09T14:28:23.696Z,1.77
2023-01-09T14:31:26.084Z,1.50
2023-01-09T14:34:39.000Z,1.55
2023-01-09T14:37:27.136Z,1.70
2023-01-09T14:40:23.495Z,1.17
2023-01-09T14:43:26.216Z,1.55
2023-01-09T14:46:16.042Z,1.58
2023-01-09T14:49:10.013Z,1.58
2023-01-09T14:51:56.162Z,1.08
2023-01-09T14:54:43.669Z,1.73
2023-01-09T14:57:31.240Z,1.60
2023-01-09T15:00:18.633Z,1.42
2023-01-09T15:03:04.043Z,1.52
2023-01-09T15:05:51.528Z,1.60
2023-01-09T15:08:36.822Z,1.50
2023-01-09T15:11:22.122Z,2.08
2023-01-09T15:14:10.225Z,1.80
2023-01-09T15:16:55.480Z,2.30
2023-01-09T15:19:45.090Z,1.63
2023-01-09T15:22:36.005Z,1.90
2023-01-09T15:25:38.100Z,1.60
2023-01-09T15:28:32.099Z,1.60
2023-01-09T15:31:22.243Z,1.83
2023-01-09T15:34:09.477Z,1.80
2023-01-09T15:36:55.315Z,2.15
2023-01-09T15:39:40.645Z,1.80
2023-01-09T15:42:47.322Z,1.60
2023-01-09T15:45:45.065Z,1.60
2023-01-09T15:48:33.297Z,1.40
2023-01-09T15:51:18.443Z,1.42
2023-01-09T15:54:04.163Z,2.17
2023-01-09T15:56:49.347Z,1.30
2023-01-09T15:59:34.591Z,1.80
2023-01-09T16:02:40.645Z,3.15
2023-01-09T16:05:25.925Z,2.90
2023-01-09T16:08:42.242Z,6.90
2023-01-09T16:11:30.990Z,3.50
2023-01-09T16:14:23.031Z,1.95
2023-01-09T16:17:15.487Z,1.88
2023-01-09T16:20:15.925Z,2.45
2023-01-09T16:23:02.759Z,2.97
2023-01-09T16:25:48.076Z,2.30
2023-01-09T16:28:33.414Z,2.03
2023-01-09T16:31:20.447Z,2.80
2023-01-09T16:34:07.227Z,5.63
2023-01-09T16:36:52.503Z,2.38
2023-01-09T16:39:38.705Z,3.25
2023-01-09T16:42:42.345Z,2.00
2023-01-09T16:45:38.833Z,1.70
2023-01-09T16:48:24.109Z,2.08
2023-01-09T16:51:18.730Z,1.92
2023-01-09T16:54:03.986Z,1.92
2023-01-09T16:56:52.396Z,3.33
2023-01-09T16:59:37.957Z,2.42
2023-01-09T17:02:23.155Z,2.58
2023-01-09T17:05:08.426Z,1.70
2023-01-09T17:07:54.569Z,1.92
2023-01-09T17:10:39.723Z,1.73
2023-01-09T17:13:25.813Z,2.40
2023-01-09T17:16:11.230Z,2.08
2023-01-09T17:18:56.667Z,2.03
2023-01-09T17:21:41.857Z,1.63
2023-01-09T17:24:46.004Z,2.20
2023-01-09T17:27:52.982Z,2.03
2023-01-09T17:30:38.222Z,2.20
2023-01-09T17:33:23.049Z,3.13
2023-01-09T17:36:32.089Z,3.50
2023-01-09T17:39:17.610Z,2.38
2023-01-09T17:42:02.529Z,2.33
2023-01-09T17:44:47.630Z,2.55
2023-01-09T17:47:33.855Z,2.22
2023-01-09T17:50:20.910Z,2.50
2023-01-09T17:53:05.717Z,2.50
2023-01-09T17:55:50.803Z,2.35
2023-01-09T17:58:35.917Z,3.28
2023-01-09T18:01:21.667Z,2.08
2023-01-09T18:04:06.878Z,2.05
2023-01-09T18:06:54.476Z,2.42
2023-01-09T18:09:39.469Z,2.42
2023-01-09T18:12:24.689Z,1.90
2023-01-09T18:15:10.254Z,1.98
2023-01-09T18:17:55.289Z,2.42
2023-01-09T18:20:41.759Z,1.92
2023-01-09T18:23:27.321Z,1.98
2023-01-09T18:26:20.047Z,1.95
2023-01-09T18:29:05.288Z,1.77
2023-01-09T18:31:51.731Z,1.95
2023-01-09T18:34:36.680Z,2.28
2023-01-09T18:37:21.716Z,1.85
2023-01-09T18:40:08.582Z,1.90
2023-01-09T18:42:53.723Z,1.60
2023-01-09T18:45:39.185Z,2.05
2023-01-09T18:48:24.389Z,1.65
2023-01-09T18:51:09.813Z,2.00
2023-01-09T18:53:55.952Z,1.73
2023-01-09T18:56:41.234Z,2.35
2023-01-09T18:59:26.494Z,2.60
2023-01-09T19:02:25.905Z,1.90
2023-01-09T19:05:10.917Z,2.08
2023-01-09T19:07:56.740Z,2.15
2023-01-09T19:10:42.069Z,2.22
2023-01-09T19:13:32.558Z,2.58
2023-01-09T19:16:17.880Z,2.60
2023-01-09T19:19:03.383Z,2.85
2023-01-09T19:21:48.470Z,2.15
2023-01-09T19:24:33.734Z,2.20
2023-01-09T19:27:18.985Z,2.58
2023-01-09T19:30:04.923Z,3.00
2023-01-09T19:32:50.068Z,2.75
2023-01-09T19:35:35.044Z,2.78
2023-01-09T19:38:22.544Z,2.55
2023-01-09T19:41:14.560Z,2.75
2023-01-09T19:44:00.143Z,3.10
2023-01-09T19:46:45.039Z,2.50
2023-01-09T19:49:37.965Z,3.16
2023-01-09T19:52:23.269Z,2.78
2023-01-09T19:55:10.991Z,3.03
2023-01-09T19:57:56.223Z,3.00
2023-01-09T20:00:41.156Z,3.28
2023-01-09T20:03:26.181Z,2.72
2023-01-09T20:06:14.426Z,3.20
2023-01-09T20:09:01.918Z,2.65
2023-01-09T20:11:46.972Z,2.65
2023-01-09T20:14:32.043Z,2.83
2023-01-09T20:17:17.868Z,3.33
2023-01-09T20:20:03.072Z,3.17
2023-01-09T20:22:48.305Z,4.03
2023-01-09T20:25:33.323Z,3.60
2023-01-09T20:28:18.299Z,3.58
2023-01-09T20:31:05.682Z,3.70
2023-01-09T20:33:51.180Z,3.58
2023-01-09T20:36:36.425Z,3.70
2023-01-09T20:39:21.589Z,3.47
2023-01-09T20:42:06.726Z,3.30
2023-01-09T20:44:52.115Z,3.60
2023-01-09T20:47:37.164Z,2.78
2023-01-09T20:50:31.233Z,3.00
2023-01-09T20:53:16.541Z,3.58
2023-01-09T20:56:03.359Z,3.40
2023-01-09T20:58:48.383Z,3.63
2023-01-09T21:01:34.824Z,3.67
2023-01-09T21:04:20.418Z,2.80
2023-01-09T21:07:05.735Z,3.50
2023-01-09T21:09:51.045Z,4.40
2023-01-09T21:12:36.267Z,3.78
2023-01-09T21:15:21.708Z,4.38
2023-01-09T21:18:06.954Z,3.58
2023-01-09T21:20:52.156Z,4.28
2023-01-09T21:23:37.505Z,3.80
2023-01-09T21:26:27.358Z,3.40
2023-01-09T21:29:12.982Z,3.38
2023-01-09T21:31:58.468Z,3.88
2023-01-09T21:34:43.595Z,3.63
2023-01-09T21:37:29.920Z,4.45
2023-01-09T21:40:17.149Z,3.45
2023-01-09T21:43:20.633Z,3.50
2023-01-09T21:46:24.446Z,4.07
2023-01-09T21:49:09.657Z,4.20
2023-01-09T21:51:55.151Z,4.03
2023-01-09T21:54:41.645Z,3.72
2023-01-09T21:57:26.689Z,4.40
2023-01-09T22:00:12.444Z,3.85
2023-01-09T22:02:58.982Z,4.15
2023-01-09T22:05:44.108Z,4.30
2023-01-09T22:08:29.065Z,4.18
2023-01-09T22:11:16.091Z,4.28
2023-01-09T22:14:01.502Z,3.88
2023-01-09T22:16:47.060Z,3.55
2023-01-09T22:19:32.481Z,4.57
2023-01-09T22:22:17.347Z,4.10
2023-01-09T22:25:03.617Z,3.70
2023-01-09T22:27:48.949Z,4.50
2023-01-09T22:30:34.147Z,4.25
2023-01-09T22:33:18.939Z,4.07
2023-01-09T22:36:06.599Z,3.63
2023-01-09T22:38:56.571Z,4.25
2023-01-09T22:44:27.193Z,4.03
2023-01-09T22:47:12.431Z,4.28
2023-01-09T22:49:57.325Z,3.65
2023-01-09T22:52:42.379Z,3.88
2023-01-09T22:55:27.575Z,4.30
2023-01-09T22:58:12.545Z,4.38
2023-01-09T23:00:58.464Z,4.43
2023-01-09T23:03:43.584Z,4.07
2023-01-09T23:06:28.624Z,3.75
2023-01-09T23:09:13.877Z,4.15
2023-01-09T23:12:02.012Z,4.32
2023-01-09T23:14:46.766Z,3.67
2023-01-09T23:17:31.841Z,6.18
2023-01-09T23:20:16.894Z,4.03
2023-01-09T23:23:02.099Z,4.57
2023-01-09T23:25:56.275Z,4.60
2023-01-09T23:28:41.481Z,4.43
2023-01-09T23:31:26.520Z,3.85
2023-01-09T23:34:22.896Z,3.47
2023-01-09T23:37:09.550Z,3.67
2023-01-09T23:39:54.986Z,3.38
2023-01-09T23:42:58.778Z,4.45
2023-01-09T23:45:45.419Z,4.35
2023-01-09T23:48:30.418Z,3.20
2023-01-09T23:51:15.686Z,4.18
2023-01-09T23:54:00.564Z,3.45
2023-01-09T23:56:45.655Z,3.75
2023-01-09T23:59:30.833Z,3.92
